ACA100 CYVR-CYYZ
Flight info
| Callsign | ACA100 |
|---|---|
| Flight time | 3h 24m |
| Altitude | 33000 |
| Route | ALNOD DCT IKNIX DCT BEVEL DCT 4930N10000W DCT AGLIN/N0458F350 DCT OTNIK BOXUM7 |
| Aircraft | A321/M-SDE3FGHIRWY/LB1 |
Departure
| Time | 2026-05-07 15:28 |
|---|---|
| Airport | Vancouver International Airport (CYVR) |
Arrival
| Time | 2026-05-07 18:53 |
|---|---|
| Airport | Toronto Pearson International Airport (CYYZ) |
| Time | Latitude | Longitude | Altitude | Speed | Heading |
|---|---|---|---|---|---|
| 2026-05-07 15:00 | 49.19649 | -123.18525 | 16 ft | 0 kts | 198° |
| 2026-05-07 15:20 | 49.19653 | -123.18523 | 15 ft | 2 kts | 197° |
| 2026-05-07 15:20 | 49.19669 | -123.18517 | 15 ft | 2 kts | 197° |
| 2026-05-07 15:20 | 49.19683 | -123.18510 | 15 ft | 2 kts | 197° |
| 2026-05-07 15:20 | 49.19698 | -123.18503 | 15 ft | 2 kts | 221° |
| 2026-05-07 15:21 | 49.19705 | -123.18480 | 15 ft | 1 kts | 273° |
| 2026-05-07 15:21 | 49.19704 | -123.18469 | 16 ft | 1 kts | 281° |
| 2026-05-07 15:21 | 49.19704 | -123.18467 | 16 ft | 0 kts | 281° |
| 2026-05-07 15:22 | 49.19705 | -123.18479 | 15 ft | 2 kts | 281° |
| 2026-05-07 15:23 | 49.19711 | -123.18525 | 15 ft | 4 kts | 281° |
| 2026-05-07 15:23 | 49.19716 | -123.18585 | 15 ft | 5 kts | 269° |
| 2026-05-07 15:23 | 49.19698 | -123.18648 | 15 ft | 6 kts | 226° |
| 2026-05-07 15:23 | 49.19655 | -123.18684 | 15 ft | 7 kts | 201° |
| 2026-05-07 15:24 | 49.19603 | -123.18700 | 15 ft | 7 kts | 189° |
| 2026-05-07 15:24 | 49.19545 | -123.18714 | 15 ft | 8 kts | 189° |
| 2026-05-07 15:24 | 49.19482 | -123.18730 | 15 ft | 9 kts | 189° |
| 2026-05-07 15:24 | 49.19417 | -123.18761 | 15 ft | 9 kts | 213° |
| 2026-05-07 15:25 | 49.19380 | -123.18854 | 15 ft | 10 kts | 256° |
| 2026-05-07 15:25 | 49.19361 | -123.18988 | 15 ft | 14 kts | 259° |
| 2026-05-07 15:25 | 49.19337 | -123.19175 | 15 ft | 18 kts | 259° |
| 2026-05-07 15:25 | 49.19310 | -123.19405 | 15 ft | 22 kts | 259° |
| 2026-05-07 15:26 | 49.19277 | -123.19662 | 17 ft | 24 kts | 261° |
| 2026-05-07 15:26 | 49.19243 | -123.19945 | 19 ft | 25 kts | 259° |
| 2026-05-07 15:26 | 49.19206 | -123.20231 | 22 ft | 24 kts | 258° |
| 2026-05-07 15:26 | 49.19186 | -123.20499 | 22 ft | 22 kts | 273° |
| 2026-05-07 15:27 | 49.19183 | -123.20763 | 17 ft | 23 kts | 237° |
| 2026-05-07 15:27 | 49.19035 | -123.20806 | 16 ft | 21 kts | 135° |
| 2026-05-07 15:27 | 49.18987 | -123.20540 | 21 ft | 48 kts | 101° |
| 2026-05-07 15:27 | 49.18885 | -123.19682 | 16 ft | 114 kts | 100° |
| 2026-05-07 15:28 | 49.18714 | -123.18185 | 19 ft | 168 kts | 101° |
| 2026-05-07 15:28 | 49.18475 | -123.16251 | 223 ft | 194 kts | 102° |
| 2026-05-07 15:28 | 49.18182 | -123.14164 | 890 ft | 198 kts | 103° |
| 2026-05-07 15:28 | 49.17841 | -123.12212 | 1770 ft | 187 kts | 107° |
| 2026-05-07 15:29 | 49.17319 | -123.10204 | 2242 ft | 200 kts | 112° |
| 2026-05-07 15:29 | 49.16809 | -123.07973 | 2622 ft | 216 kts | 99° |
| 2026-05-07 15:29 | 49.16607 | -123.05358 | 2967 ft | 237 kts | 94° |
| 2026-05-07 15:29 | 49.16453 | -123.02482 | 3509 ft | 252 kts | 94° |
| 2026-05-07 15:30 | 49.16273 | -122.99478 | 4317 ft | 257 kts | 94° |
| 2026-05-07 15:30 | 49.16069 | -122.96448 | 5186 ft | 258 kts | 95° |
| 2026-05-07 15:30 | 49.15855 | -122.93481 | 5989 ft | 260 kts | 95° |
| 2026-05-07 15:30 | 49.15626 | -122.90434 | 6748 ft | 264 kts | 95° |
| 2026-05-07 15:31 | 49.15389 | -122.87359 | 7448 ft | 268 kts | 96° |
| 2026-05-07 15:31 | 49.15150 | -122.84293 | 8118 ft | 274 kts | 96° |
| 2026-05-07 15:31 | 49.14899 | -122.81117 | 8766 ft | 280 kts | 96° |
| 2026-05-07 15:31 | 49.14640 | -122.77879 | 9424 ft | 283 kts | 96° |
| 2026-05-07 15:32 | 49.14379 | -122.74618 | 10107 ft | 286 kts | 95° |
| 2026-05-07 15:32 | 49.14109 | -122.71275 | 10674 ft | 295 kts | 95° |
| 2026-05-07 15:32 | 49.13821 | -122.67688 | 11006 ft | 311 kts | 95° |
| 2026-05-07 15:32 | 49.13514 | -122.63863 | 11314 ft | 328 kts | 95° |
| 2026-05-07 15:33 | 49.13193 | -122.59908 | 11654 ft | 343 kts | 95° |
| 2026-05-07 15:33 | 49.12843 | -122.55629 | 11977 ft | 359 kts | 95° |
| 2026-05-07 15:33 | 49.12475 | -122.51163 | 12289 ft | 374 kts | 95° |
| 2026-05-07 15:33 | 49.12090 | -122.46505 | 12779 ft | 383 kts | 95° |
| 2026-05-07 15:34 | 49.11705 | -122.41884 | 13388 ft | 387 kts | 95° |
| 2026-05-07 15:34 | 49.11312 | -122.37180 | 13995 ft | 391 kts | 95° |
| 2026-05-07 15:34 | 49.10914 | -122.32430 | 14558 ft | 396 kts | 96° |
| 2026-05-07 15:34 | 49.10510 | -122.27638 | 15083 ft | 401 kts | 96° |
| 2026-05-07 15:35 | 49.10102 | -122.22826 | 15618 ft | 406 kts | 96° |
| 2026-05-07 15:35 | 49.09683 | -122.17885 | 16132 ft | 410 kts | 95° |
| 2026-05-07 15:35 | 49.09253 | -122.12865 | 16667 ft | 415 kts | 95° |
| 2026-05-07 15:35 | 49.08830 | -122.07941 | 17151 ft | 419 kts | 95° |
| 2026-05-07 15:36 | 49.08402 | -122.02975 | 17642 ft | 423 kts | 95° |
| 2026-05-07 15:36 | 49.07962 | -121.97922 | 18078 ft | 428 kts | 95° |
| 2026-05-07 15:36 | 49.07516 | -121.92809 | 18568 ft | 432 kts | 95° |
| 2026-05-07 15:36 | 49.07066 | -121.87673 | 18998 ft | 437 kts | 94° |
| 2026-05-07 15:37 | 49.06605 | -121.82441 | 19416 ft | 441 kts | 94° |
| 2026-05-07 15:37 | 49.06137 | -121.77168 | 19834 ft | 446 kts | 94° |
| 2026-05-07 15:37 | 49.05658 | -121.71766 | 20271 ft | 449 kts | 94° |
| 2026-05-07 15:37 | 49.05391 | -121.66286 | 20687 ft | 451 kts | 87° |
| 2026-05-07 15:38 | 49.05520 | -121.60817 | 21093 ft | 451 kts | 80° |
| 2026-05-07 15:38 | 49.05959 | -121.55426 | 21500 ft | 453 kts | 77° |
| 2026-05-07 15:38 | 49.06471 | -121.50028 | 21939 ft | 455 kts | 77° |
| 2026-05-07 15:38 | 49.07005 | -121.44441 | 22344 ft | 459 kts | 77° |
| 2026-05-07 15:39 | 49.07512 | -121.39053 | 22686 ft | 463 kts | 77° |
| 2026-05-07 15:39 | 49.08003 | -121.33722 | 23020 ft | 467 kts | 77° |
| 2026-05-07 15:39 | 49.08505 | -121.28216 | 23371 ft | 470 kts | 77° |
| 2026-05-07 15:39 | 49.08997 | -121.22742 | 23711 ft | 473 kts | 77° |
| 2026-05-07 15:40 | 49.09497 | -121.17104 | 24067 ft | 476 kts | 77° |
| 2026-05-07 15:40 | 49.09990 | -121.11547 | 24411 ft | 478 kts | 77° |
| 2026-05-07 15:40 | 49.10490 | -121.05848 | 24738 ft | 481 kts | 77° |
| 2026-05-07 15:40 | 49.10994 | -121.00085 | 25056 ft | 484 kts | 77° |
| 2026-05-07 15:41 | 49.11485 | -120.94427 | 25394 ft | 486 kts | 77° |
| 2026-05-07 15:41 | 49.11967 | -120.88841 | 25720 ft | 487 kts | 77° |
| 2026-05-07 15:41 | 49.12468 | -120.82978 | 26143 ft | 487 kts | 77° |
| 2026-05-07 15:41 | 49.12955 | -120.77277 | 26592 ft | 485 kts | 77° |
| 2026-05-07 15:42 | 49.13428 | -120.71693 | 26981 ft | 485 kts | 77° |
| 2026-05-07 15:42 | 49.13901 | -120.66077 | 27350 ft | 484 kts | 77° |
| 2026-05-07 15:42 | 49.14378 | -120.60393 | 27726 ft | 484 kts | 77° |
| 2026-05-07 15:42 | 49.14847 | -120.54762 | 28094 ft | 483 kts | 76° |
| 2026-05-07 15:43 | 49.15310 | -120.49161 | 28491 ft | 482 kts | 76° |
| 2026-05-07 15:43 | 49.15771 | -120.43562 | 28846 ft | 482 kts | 76° |
| 2026-05-07 15:43 | 49.16214 | -120.38163 | 29138 ft | 482 kts | 76° |
| 2026-05-07 15:43 | 49.16651 | -120.32768 | 29482 ft | 481 kts | 77° |
| 2026-05-07 15:44 | 49.17083 | -120.27424 | 29779 ft | 481 kts | 77° |
| 2026-05-07 15:44 | 49.17518 | -120.22018 | 30061 ft | 481 kts | 77° |
| 2026-05-07 15:44 | 49.17960 | -120.16490 | 30372 ft | 481 kts | 77° |
| 2026-05-07 15:44 | 49.18385 | -120.11155 | 30662 ft | 480 kts | 77° |
| 2026-05-07 15:45 | 49.18819 | -120.05649 | 30965 ft | 479 kts | 77° |
| 2026-05-07 15:45 | 49.19243 | -120.00217 | 31255 ft | 479 kts | 76° |
| 2026-05-07 15:45 | 49.19676 | -119.94672 | 31474 ft | 480 kts | 76° |
| 2026-05-07 15:45 | 49.20110 | -119.89101 | 31657 ft | 481 kts | 76° |
| 2026-05-07 15:46 | 49.20959 | -119.78046 | 32061 ft | 483 kts | 76° |
| 2026-05-07 15:46 | 49.21387 | -119.72439 | 32276 ft | 483 kts | 76° |
| 2026-05-07 15:46 | 49.21804 | -119.66885 | 32513 ft | 482 kts | 76° |
| 2026-05-07 15:47 | 49.22230 | -119.61211 | 32694 ft | 483 kts | 76° |
| 2026-05-07 15:47 | 49.22649 | -119.55621 | 32831 ft | 485 kts | 76° |
| 2026-05-07 15:47 | 49.23064 | -119.49976 | 33020 ft | 485 kts | 76° |
| 2026-05-07 15:48 | 49.23909 | -119.38455 | 33064 ft | 485 kts | 76° |
| 2026-05-07 15:48 | 49.24719 | -119.27184 | 33074 ft | 483 kts | 77° |
| 2026-05-07 15:49 | 49.25481 | -119.16249 | 33075 ft | 484 kts | 77° |
| 2026-05-07 15:49 | 49.26222 | -119.04946 | 33058 ft | 482 kts | 77° |
| 2026-05-07 15:50 | 49.26963 | -118.93556 | 33049 ft | 484 kts | 77° |
| 2026-05-07 15:50 | 49.27701 | -118.82044 | 33045 ft | 484 kts | 77° |
| 2026-05-07 15:51 | 49.28428 | -118.70540 | 33043 ft | 483 kts | 77° |
| 2026-05-07 15:51 | 49.29151 | -118.58897 | 33046 ft | 485 kts | 77° |
| 2026-05-07 15:52 | 49.29867 | -118.47179 | 33039 ft | 485 kts | 77° |
| 2026-05-07 15:52 | 49.30566 | -118.35493 | 33039 ft | 484 kts | 77° |
| 2026-05-07 15:53 | 49.31230 | -118.24268 | 33026 ft | 486 kts | 78° |
| 2026-05-07 15:53 | 49.31893 | -118.12891 | 33030 ft | 486 kts | 78° |
| 2026-05-07 15:54 | 49.32567 | -118.01066 | 33028 ft | 486 kts | 78° |
| 2026-05-07 15:54 | 49.33230 | -117.89206 | 33026 ft | 486 kts | 79° |
| 2026-05-07 15:55 | 49.33892 | -117.77138 | 33025 ft | 486 kts | 78° |
| 2026-05-07 15:55 | 49.34543 | -117.65054 | 33012 ft | 486 kts | 78° |
| 2026-05-07 15:56 | 49.35179 | -117.53044 | 33020 ft | 487 kts | 78° |
| 2026-05-07 15:56 | 49.35800 | -117.41035 | 33023 ft | 486 kts | 79° |
| 2026-05-07 15:57 | 49.36398 | -117.29277 | 33036 ft | 486 kts | 79° |
| 2026-05-07 15:57 | 49.36980 | -117.17569 | 33051 ft | 486 kts | 79° |
| 2026-05-07 15:58 | 49.37574 | -117.05377 | 33052 ft | 485 kts | 80° |
| 2026-05-07 15:58 | 49.38154 | -116.93219 | 33049 ft | 487 kts | 80° |
| 2026-05-07 15:59 | 49.38720 | -116.81062 | 33040 ft | 487 kts | 80° |
| 2026-05-07 15:59 | 49.39287 | -116.68559 | 33040 ft | 487 kts | 79° |
| 2026-05-07 16:00 | 49.39841 | -116.56100 | 33037 ft | 488 kts | 80° |
| 2026-05-07 16:00 | 49.40375 | -116.43716 | 33032 ft | 487 kts | 80° |
| 2026-05-07 16:01 | 49.40889 | -116.31628 | 33038 ft | 487 kts | 81° |
| 2026-05-07 16:01 | 49.41389 | -116.19495 | 33047 ft | 488 kts | 81° |
| 2026-05-07 16:02 | 49.41878 | -116.07313 | 33047 ft | 488 kts | 81° |
| 2026-05-07 16:02 | 49.42358 | -115.95002 | 33040 ft | 489 kts | 81° |
| 2026-05-07 16:03 | 49.42830 | -115.82607 | 33038 ft | 489 kts | 81° |
| 2026-05-07 16:03 | 49.43277 | -115.70527 | 33032 ft | 490 kts | 81° |
| 2026-05-07 16:04 | 49.43707 | -115.58568 | 33031 ft | 491 kts | 81° |
| 2026-05-07 16:04 | 49.44135 | -115.46267 | 33033 ft | 490 kts | 81° |
| 2026-05-07 16:05 | 49.44549 | -115.34024 | 33040 ft | 491 kts | 82° |
| 2026-05-07 16:05 | 49.44935 | -115.22290 | 33041 ft | 491 kts | 82° |
| 2026-05-07 16:06 | 49.45318 | -115.10220 | 33038 ft | 492 kts | 82° |
| 2026-05-07 16:06 | 49.45683 | -114.98292 | 33034 ft | 493 kts | 82° |
| 2026-05-07 16:07 | 49.46056 | -114.85671 | 33030 ft | 492 kts | 82° |
| 2026-05-07 16:07 | 49.46414 | -114.73122 | 33014 ft | 492 kts | 82° |
| 2026-05-07 16:08 | 49.46765 | -114.60323 | 33016 ft | 491 kts | 82° |
| 2026-05-07 16:08 | 49.47097 | -114.47758 | 33033 ft | 491 kts | 82° |
| 2026-05-07 16:09 | 49.47411 | -114.35321 | 33045 ft | 491 kts | 82° |
| 2026-05-07 16:09 | 49.47702 | -114.23273 | 33044 ft | 490 kts | 83° |
| 2026-05-07 16:10 | 49.47986 | -114.11055 | 33043 ft | 491 kts | 83° |
| 2026-05-07 16:10 | 49.48259 | -113.98724 | 33035 ft | 491 kts | 83° |
| 2026-05-07 16:11 | 49.48519 | -113.86348 | 33030 ft | 490 kts | 83° |
| 2026-05-07 16:11 | 49.48762 | -113.74111 | 33035 ft | 490 kts | 83° |
| 2026-05-07 16:12 | 49.48996 | -113.61762 | 33037 ft | 489 kts | 83° |
| 2026-05-07 16:12 | 49.49217 | -113.49354 | 33026 ft | 489 kts | 83° |
| 2026-05-07 16:13 | 49.49433 | -113.36466 | 33014 ft | 488 kts | 83° |
| 2026-05-07 16:13 | 49.49627 | -113.24116 | 33019 ft | 488 kts | 84° |
| 2026-05-07 16:14 | 49.49808 | -113.11673 | 33003 ft | 488 kts | 84° |
| 2026-05-07 16:14 | 49.49978 | -112.99018 | 33001 ft | 488 kts | 84° |
| 2026-05-07 16:15 | 49.50135 | -112.86368 | 32990 ft | 489 kts | 84° |
| 2026-05-07 16:15 | 49.50280 | -112.73514 | 32976 ft | 488 kts | 83° |
| 2026-05-07 16:16 | 49.50411 | -112.60670 | 32982 ft | 489 kts | 83° |
| 2026-05-07 16:16 | 49.50528 | -112.47849 | 32974 ft | 488 kts | 83° |
| 2026-05-07 16:17 | 49.50629 | -112.35106 | 32963 ft | 488 kts | 83° |
| 2026-05-07 16:17 | 49.50715 | -112.22691 | 32962 ft | 488 kts | 84° |
| 2026-05-07 16:18 | 49.50790 | -112.10043 | 32961 ft | 489 kts | 84° |
| 2026-05-07 16:18 | 49.50849 | -111.97389 | 32954 ft | 489 kts | 84° |
| 2026-05-07 16:19 | 49.50895 | -111.84715 | 32946 ft | 489 kts | 84° |
| 2026-05-07 16:19 | 49.50927 | -111.72071 | 32937 ft | 488 kts | 84° |
| 2026-05-07 16:20 | 49.50947 | -111.59483 | 32942 ft | 488 kts | 84° |
| 2026-05-07 16:20 | 49.50952 | -111.46909 | 32937 ft | 487 kts | 84° |
| 2026-05-07 16:21 | 49.50942 | -111.34309 | 32926 ft | 486 kts | 84° |
| 2026-05-07 16:21 | 49.50921 | -111.21790 | 32930 ft | 487 kts | 84° |
| 2026-05-07 16:22 | 49.50885 | -111.09337 | 32931 ft | 486 kts | 84° |
| 2026-05-07 16:22 | 49.50835 | -110.96664 | 32939 ft | 484 kts | 85° |
| 2026-05-07 16:23 | 49.50771 | -110.83926 | 32927 ft | 483 kts | 84° |
| 2026-05-07 16:23 | 49.50696 | -110.71304 | 32920 ft | 483 kts | 85° |
| 2026-05-07 16:24 | 49.50605 | -110.58703 | 32911 ft | 484 kts | 85° |
| 2026-05-07 16:24 | 49.50499 | -110.46109 | 32916 ft | 484 kts | 85° |
| 2026-05-07 16:25 | 49.50383 | -110.33659 | 32916 ft | 484 kts | 86° |
| 2026-05-07 16:25 | 49.50261 | -110.22021 | 32911 ft | 484 kts | 86° |
| 2026-05-07 16:26 | 49.50118 | -110.09570 | 32908 ft | 484 kts | 86° |
| 2026-05-07 16:26 | 49.50074 | -109.96954 | 32910 ft | 482 kts | 83° |
| 2026-05-07 16:27 | 49.50422 | -109.84520 | 32903 ft | 481 kts | 82° |
| 2026-05-07 16:27 | 49.50780 | -109.71911 | 32900 ft | 481 kts | 82° |
| 2026-05-07 16:28 | 49.51112 | -109.59314 | 32903 ft | 480 kts | 82° |
| 2026-05-07 16:28 | 49.51420 | -109.47153 | 32901 ft | 479 kts | 82° |
| 2026-05-07 16:29 | 49.51720 | -109.34706 | 32897 ft | 479 kts | 83° |
| 2026-05-07 16:29 | 49.52003 | -109.22417 | 32888 ft | 479 kts | 83° |
| 2026-05-07 16:30 | 49.52269 | -109.10272 | 32876 ft | 479 kts | 83° |
| 2026-05-07 16:30 | 49.52523 | -108.98148 | 32871 ft | 478 kts | 83° |
| 2026-05-07 16:31 | 49.52766 | -108.85874 | 32886 ft | 478 kts | 83° |
| 2026-05-07 16:31 | 49.52998 | -108.73568 | 32891 ft | 478 kts | 83° |
| 2026-05-07 16:32 | 49.53213 | -108.61489 | 32889 ft | 477 kts | 84° |
| 2026-05-07 16:32 | 49.53417 | -108.49284 | 32896 ft | 478 kts | 84° |
| 2026-05-07 16:33 | 49.53611 | -108.36834 | 32894 ft | 478 kts | 84° |
| 2026-05-07 16:33 | 49.53783 | -108.25054 | 32894 ft | 478 kts | 85° |
| 2026-05-07 16:34 | 49.53944 | -108.13185 | 32896 ft | 477 kts | 85° |
| 2026-05-07 16:34 | 49.54099 | -108.00854 | 32893 ft | 477 kts | 85° |
| 2026-05-07 16:35 | 49.54238 | -107.88605 | 32880 ft | 477 kts | 85° |
| 2026-05-07 16:35 | 49.54366 | -107.76211 | 32877 ft | 477 kts | 85° |
| 2026-05-07 16:36 | 49.54482 | -107.63823 | 32880 ft | 478 kts | 85° |
| 2026-05-07 16:36 | 49.54583 | -107.51522 | 32879 ft | 477 kts | 85° |
| 2026-05-07 16:37 | 49.54673 | -107.39151 | 32892 ft | 477 kts | 86° |
| 2026-05-07 16:37 | 49.54745 | -107.27365 | 32891 ft | 477 kts | 86° |
| 2026-05-07 16:38 | 49.54806 | -107.15397 | 32890 ft | 477 kts | 86° |
| 2026-05-07 16:38 | 49.54856 | -107.03272 | 32887 ft | 478 kts | 86° |
| 2026-05-07 16:39 | 49.54894 | -106.90887 | 32890 ft | 478 kts | 87° |
| 2026-05-07 16:39 | 49.54917 | -106.78568 | 32883 ft | 477 kts | 86° |
| 2026-05-07 16:40 | 49.54927 | -106.66141 | 32880 ft | 477 kts | 86° |
| 2026-05-07 16:40 | 49.54925 | -106.53698 | 32887 ft | 478 kts | 86° |
| 2026-05-07 16:41 | 49.54910 | -106.41388 | 32883 ft | 478 kts | 86° |
| 2026-05-07 16:41 | 49.54882 | -106.29278 | 32881 ft | 478 kts | 87° |
| 2026-05-07 16:42 | 49.54844 | -106.17313 | 32882 ft | 478 kts | 87° |
| 2026-05-07 16:42 | 49.54789 | -106.04972 | 32889 ft | 478 kts | 87° |
| 2026-05-07 16:43 | 49.54721 | -105.92488 | 32895 ft | 479 kts | 87° |
| 2026-05-07 16:43 | 49.54639 | -105.79829 | 32897 ft | 479 kts | 87° |
| 2026-05-07 16:44 | 49.54544 | -105.67316 | 32896 ft | 478 kts | 87° |
| 2026-05-07 16:44 | 49.54433 | -105.54715 | 32889 ft | 479 kts | 87° |
| 2026-05-07 16:45 | 49.54311 | -105.42162 | 32888 ft | 479 kts | 87° |
| 2026-05-07 16:45 | 49.54178 | -105.29849 | 32895 ft | 478 kts | 88° |
| 2026-05-07 16:46 | 49.54034 | -105.17725 | 32897 ft | 479 kts | 88° |
| 2026-05-07 16:46 | 49.53873 | -105.05325 | 32891 ft | 480 kts | 87° |
| 2026-05-07 16:47 | 49.53699 | -104.92894 | 32889 ft | 480 kts | 87° |
| 2026-05-07 16:47 | 49.53509 | -104.80368 | 32889 ft | 480 kts | 87° |
| 2026-05-07 16:48 | 49.53313 | -104.68259 | 32890 ft | 479 kts | 87° |
| 2026-05-07 16:48 | 49.53127 | -104.57422 | 32897 ft | 480 kts | 87° |
| 2026-05-07 16:49 | 49.52922 | -104.46078 | 32907 ft | 481 kts | 87° |
| 2026-05-07 16:49 | 49.52712 | -104.35076 | 32905 ft | 480 kts | 87° |
| 2026-05-07 16:50 | 49.52470 | -104.22910 | 32900 ft | 481 kts | 88° |
| 2026-05-07 16:50 | 49.52226 | -104.11395 | 32899 ft | 481 kts | 88° |
| 2026-05-07 16:51 | 49.51967 | -103.99711 | 32897 ft | 481 kts | 88° |
| 2026-05-07 16:51 | 49.51691 | -103.87772 | 32892 ft | 482 kts | 87° |
| 2026-05-07 16:52 | 49.51421 | -103.76601 | 32895 ft | 482 kts | 87° |
| 2026-05-07 16:52 | 49.51129 | -103.64954 | 32901 ft | 482 kts | 87° |
| 2026-05-07 16:53 | 49.50831 | -103.53526 | 32905 ft | 482 kts | 87° |
| 2026-05-07 16:53 | 49.50525 | -103.42285 | 32907 ft | 482 kts | 87° |
| 2026-05-07 16:54 | 49.50193 | -103.30415 | 32906 ft | 483 kts | 88° |
| 2026-05-07 16:54 | 49.49827 | -103.17873 | 32905 ft | 483 kts | 88° |
| 2026-05-07 16:55 | 49.49448 | -103.05345 | 32903 ft | 483 kts | 88° |
| 2026-05-07 16:55 | 49.49063 | -102.93027 | 32904 ft | 483 kts | 87° |
| 2026-05-07 16:56 | 49.48698 | -102.81716 | 32905 ft | 483 kts | 88° |
| 2026-05-07 16:56 | 49.48083 | -102.63429 | 32898 ft | 484 kts | 87° |
| 2026-05-07 16:57 | 49.47649 | -102.50977 | 32895 ft | 484 kts | 87° |
| 2026-05-07 16:57 | 49.47205 | -102.38672 | 32892 ft | 484 kts | 87° |
| 2026-05-07 16:58 | 49.46744 | -102.26232 | 32901 ft | 485 kts | 88° |
| 2026-05-07 16:58 | 49.46263 | -102.13650 | 32902 ft | 484 kts | 88° |
| 2026-05-07 16:59 | 49.45763 | -102.00912 | 32903 ft | 484 kts | 88° |
| 2026-05-07 16:59 | 49.45254 | -101.88291 | 32901 ft | 484 kts | 88° |
| 2026-05-07 17:00 | 49.44750 | -101.76138 | 32901 ft | 485 kts | 88° |
| 2026-05-07 17:00 | 49.44214 | -101.63529 | 32900 ft | 485 kts | 88° |
| 2026-05-07 17:01 | 49.43682 | -101.51344 | 32895 ft | 485 kts | 87° |
| 2026-05-07 17:01 | 49.43111 | -101.38610 | 32890 ft | 484 kts | 87° |
| 2026-05-07 17:02 | 49.42542 | -101.26118 | 32895 ft | 485 kts | 88° |
| 2026-05-07 17:02 | 49.41952 | -101.13526 | 32903 ft | 486 kts | 88° |
| 2026-05-07 17:03 | 49.41329 | -101.00564 | 32905 ft | 486 kts | 88° |
| 2026-05-07 17:03 | 49.40698 | -100.87717 | 32907 ft | 486 kts | 88° |
| 2026-05-07 17:04 | 49.40062 | -100.75045 | 32905 ft | 485 kts | 88° |
| 2026-05-07 17:04 | 49.39405 | -100.62260 | 32899 ft | 487 kts | 87° |
| 2026-05-07 17:05 | 49.38739 | -100.49564 | 32893 ft | 486 kts | 87° |
| 2026-05-07 17:05 | 49.38060 | -100.36849 | 32888 ft | 487 kts | 88° |
| 2026-05-07 17:06 | 49.37379 | -100.24413 | 32892 ft | 488 kts | 88° |
| 2026-05-07 17:06 | 49.36686 | -100.12000 | 32898 ft | 488 kts | 88° |
| 2026-05-07 17:07 | 49.36324 | -100.05585 | 33011 ft | 489 kts | 88° |
| 2026-05-07 17:07 | 49.35961 | -99.99239 | 33283 ft | 488 kts | 88° |
| 2026-05-07 17:07 | 49.35592 | -99.92857 | 33527 ft | 487 kts | 88° |
| 2026-05-07 17:07 | 49.35221 | -99.86484 | 33732 ft | 487 kts | 88° |
| 2026-05-07 17:08 | 49.34846 | -99.80114 | 33948 ft | 487 kts | 88° |
| 2026-05-07 17:08 | 49.34471 | -99.73806 | 34144 ft | 486 kts | 87° |
| 2026-05-07 17:08 | 49.34091 | -99.67483 | 34317 ft | 486 kts | 87° |
| 2026-05-07 17:08 | 49.33708 | -99.61141 | 34486 ft | 486 kts | 87° |
| 2026-05-07 17:09 | 49.33323 | -99.54813 | 34633 ft | 486 kts | 87° |
| 2026-05-07 17:09 | 49.32938 | -99.48544 | 34774 ft | 485 kts | 87° |
| 2026-05-07 17:09 | 49.32157 | -99.36024 | 34866 ft | 485 kts | 87° |
| 2026-05-07 17:10 | 49.31388 | -99.23924 | 34880 ft | 485 kts | 88° |
| 2026-05-07 17:10 | 49.30596 | -99.11624 | 34863 ft | 485 kts | 88° |
| 2026-05-07 17:11 | 49.29774 | -98.99136 | 34890 ft | 485 kts | 88° |
| 2026-05-07 17:11 | 49.28947 | -98.86704 | 34870 ft | 485 kts | 88° |
| 2026-05-07 17:12 | 49.28113 | -98.74422 | 34868 ft | 485 kts | 88° |
| 2026-05-07 17:12 | 49.27272 | -98.62203 | 34863 ft | 485 kts | 88° |
| 2026-05-07 17:13 | 49.26413 | -98.49934 | 34852 ft | 484 kts | 88° |
| 2026-05-07 17:13 | 49.25549 | -98.37771 | 34859 ft | 485 kts | 88° |
| 2026-05-07 17:14 | 49.24697 | -98.25970 | 34871 ft | 485 kts | 89° |
| 2026-05-07 17:14 | 49.23818 | -98.13951 | 34880 ft | 485 kts | 89° |
| 2026-05-07 17:15 | 49.22914 | -98.01781 | 34892 ft | 485 kts | 89° |
| 2026-05-07 17:15 | 49.21991 | -97.89516 | 34865 ft | 484 kts | 89° |
| 2026-05-07 17:16 | 49.21057 | -97.77309 | 34861 ft | 484 kts | 89° |
| 2026-05-07 17:16 | 49.20107 | -97.65052 | 34884 ft | 484 kts | 89° |
| 2026-05-07 17:17 | 49.19140 | -97.52752 | 34877 ft | 482 kts | 90° |
| 2026-05-07 17:17 | 49.18167 | -97.40536 | 34877 ft | 482 kts | 90° |
| 2026-05-07 17:18 | 49.17187 | -97.28380 | 34886 ft | 484 kts | 91° |
| 2026-05-07 17:18 | 49.16184 | -97.16136 | 34895 ft | 483 kts | 91° |
| 2026-05-07 17:19 | 49.15154 | -97.03746 | 34878 ft | 482 kts | 91° |
| 2026-05-07 17:19 | 49.14106 | -96.91252 | 34897 ft | 483 kts | 91° |
| 2026-05-07 17:20 | 49.13041 | -96.78770 | 34894 ft | 482 kts | 91° |
| 2026-05-07 17:20 | 49.11964 | -96.66304 | 34899 ft | 482 kts | 91° |
| 2026-05-07 17:21 | 49.10876 | -96.53863 | 34904 ft | 481 kts | 91° |
| 2026-05-07 17:21 | 49.09782 | -96.41484 | 34889 ft | 480 kts | 91° |
| 2026-05-07 17:22 | 49.08688 | -96.29273 | 34889 ft | 481 kts | 92° |
| 2026-05-07 17:22 | 49.07575 | -96.17006 | 34880 ft | 481 kts | 92° |
| 2026-05-07 17:23 | 49.06444 | -96.04688 | 34872 ft | 481 kts | 93° |
| 2026-05-07 17:23 | 49.05936 | -95.99202 | 34875 ft | 480 kts | 93° |
| 2026-05-07 17:24 | 49.04682 | -95.85794 | 34877 ft | 480 kts | 93° |
| 2026-05-07 17:25 | 49.03518 | -95.73495 | 34881 ft | 480 kts | 93° |
| 2026-05-07 17:25 | 49.02348 | -95.61291 | 34891 ft | 479 kts | 93° |
| 2026-05-07 17:26 | 49.01173 | -95.49135 | 34904 ft | 480 kts | 93° |
| 2026-05-07 17:26 | 48.99985 | -95.37010 | 34909 ft | 480 kts | 93° |
| 2026-05-07 17:27 | 48.98789 | -95.24924 | 34904 ft | 481 kts | 94° |
| 2026-05-07 17:27 | 48.97560 | -95.12658 | 34903 ft | 481 kts | 94° |
| 2026-05-07 17:28 | 48.96310 | -95.00295 | 34905 ft | 481 kts | 94° |
| 2026-05-07 17:28 | 48.95073 | -94.88205 | 34903 ft | 479 kts | 94° |
| 2026-05-07 17:29 | 48.93803 | -94.75938 | 34886 ft | 480 kts | 94° |
| 2026-05-07 17:29 | 48.92523 | -94.63695 | 34881 ft | 480 kts | 94° |
| 2026-05-07 17:30 | 48.91294 | -94.52051 | 34878 ft | 480 kts | 95° |
| 2026-05-07 17:30 | 48.90035 | -94.40267 | 34879 ft | 479 kts | 95° |
| 2026-05-07 17:31 | 48.88817 | -94.28961 | 34865 ft | 480 kts | 95° |
| 2026-05-07 17:31 | 48.87556 | -94.17361 | 34872 ft | 480 kts | 95° |
| 2026-05-07 17:32 | 48.86264 | -94.05592 | 34872 ft | 480 kts | 96° |
| 2026-05-07 17:32 | 48.84951 | -93.93776 | 34874 ft | 480 kts | 96° |
| 2026-05-07 17:33 | 48.83640 | -93.82079 | 34868 ft | 480 kts | 96° |
| 2026-05-07 17:33 | 48.82325 | -93.70447 | 34869 ft | 480 kts | 96° |
| 2026-05-07 17:34 | 48.80992 | -93.58775 | 34870 ft | 480 kts | 96° |
| 2026-05-07 17:34 | 48.79652 | -93.47137 | 34867 ft | 481 kts | 96° |
| 2026-05-07 17:35 | 48.78305 | -93.35553 | 34862 ft | 480 kts | 96° |
| 2026-05-07 17:35 | 48.76991 | -93.24354 | 34860 ft | 480 kts | 97° |
| 2026-05-07 17:36 | 48.75630 | -93.12865 | 34852 ft | 480 kts | 97° |
| 2026-05-07 17:36 | 48.74252 | -93.01320 | 34855 ft | 480 kts | 97° |
| 2026-05-07 17:37 | 48.72870 | -92.89844 | 34862 ft | 480 kts | 97° |
| 2026-05-07 17:37 | 48.71463 | -92.78283 | 34858 ft | 480 kts | 97° |
| 2026-05-07 17:38 | 48.70067 | -92.66905 | 34862 ft | 480 kts | 97° |
| 2026-05-07 17:38 | 48.68634 | -92.55305 | 34854 ft | 481 kts | 97° |
| 2026-05-07 17:39 | 48.67209 | -92.43884 | 34850 ft | 481 kts | 97° |
| 2026-05-07 17:39 | 48.65781 | -92.32538 | 34852 ft | 481 kts | 98° |
| 2026-05-07 17:40 | 48.64366 | -92.21381 | 34843 ft | 481 kts | 98° |
| 2026-05-07 17:40 | 48.62915 | -92.10040 | 34839 ft | 481 kts | 98° |
| 2026-05-07 17:41 | 48.61437 | -91.98583 | 34833 ft | 481 kts | 98° |
| 2026-05-07 17:41 | 48.59957 | -91.87200 | 34836 ft | 482 kts | 98° |
| 2026-05-07 17:42 | 48.58451 | -91.75710 | 34842 ft | 481 kts | 99° |
| 2026-05-07 17:42 | 48.56950 | -91.64360 | 34846 ft | 481 kts | 99° |
| 2026-05-07 17:43 | 48.55429 | -91.52949 | 34842 ft | 481 kts | 99° |
| 2026-05-07 17:43 | 48.53913 | -91.41653 | 34840 ft | 481 kts | 99° |
| 2026-05-07 17:44 | 48.52419 | -91.30613 | 34840 ft | 482 kts | 99° |
| 2026-05-07 17:44 | 48.50928 | -91.19681 | 34837 ft | 482 kts | 99° |
| 2026-05-07 17:45 | 48.49425 | -91.08747 | 34837 ft | 481 kts | 100° |
| 2026-05-07 17:45 | 48.47867 | -90.97493 | 34830 ft | 481 kts | 100° |
| 2026-05-07 17:46 | 48.46336 | -90.86519 | 34828 ft | 480 kts | 100° |
| 2026-05-07 17:46 | 48.44745 | -90.75194 | 34827 ft | 481 kts | 100° |
| 2026-05-07 17:47 | 48.43169 | -90.64072 | 34824 ft | 482 kts | 100° |
| 2026-05-07 17:47 | 48.41557 | -90.52768 | 34814 ft | 482 kts | 100° |
| 2026-05-07 17:48 | 48.39930 | -90.41449 | 34813 ft | 481 kts | 100° |
| 2026-05-07 17:48 | 48.38341 | -90.30477 | 34817 ft | 481 kts | 101° |
| 2026-05-07 17:49 | 48.36744 | -90.19533 | 34814 ft | 481 kts | 101° |
| 2026-05-07 17:49 | 48.35101 | -90.08341 | 34817 ft | 481 kts | 101° |
| 2026-05-07 17:50 | 48.33434 | -89.97066 | 34817 ft | 482 kts | 101° |
| 2026-05-07 17:50 | 48.31733 | -89.85661 | 34816 ft | 482 kts | 101° |
| 2026-05-07 17:51 | 48.30054 | -89.74483 | 34824 ft | 482 kts | 101° |
| 2026-05-07 17:51 | 48.28335 | -89.63107 | 34831 ft | 482 kts | 101° |
| 2026-05-07 17:52 | 48.26611 | -89.51792 | 34839 ft | 482 kts | 101° |
| 2026-05-07 17:52 | 48.24440 | -89.40611 | 34852 ft | 483 kts | 109° |
| 2026-05-07 17:53 | 48.21508 | -89.30036 | 34859 ft | 484 kts | 113° |
| 2026-05-07 17:53 | 48.18499 | -89.19590 | 34867 ft | 483 kts | 113° |
| 2026-05-07 17:54 | 48.15473 | -89.09076 | 34873 ft | 483 kts | 113° |
| 2026-05-07 17:54 | 48.12405 | -88.98431 | 34867 ft | 483 kts | 113° |
| 2026-05-07 17:55 | 48.09332 | -88.87819 | 34864 ft | 483 kts | 113° |
| 2026-05-07 17:55 | 48.06233 | -88.77160 | 34863 ft | 483 kts | 113° |
| 2026-05-07 17:56 | 48.03107 | -88.66454 | 34862 ft | 482 kts | 113° |
| 2026-05-07 17:56 | 48.00002 | -88.55866 | 34865 ft | 481 kts | 113° |
| 2026-05-07 17:57 | 47.97371 | -88.46931 | 34870 ft | 480 kts | 113° |
| 2026-05-07 17:57 | 47.93716 | -88.34570 | 34875 ft | 481 kts | 114° |
| 2026-05-07 17:58 | 47.90555 | -88.23931 | 34882 ft | 481 kts | 114° |
| 2026-05-07 17:58 | 47.87495 | -88.13673 | 34885 ft | 481 kts | 114° |
| 2026-05-07 17:59 | 47.84433 | -88.03452 | 34884 ft | 480 kts | 114° |
| 2026-05-07 17:59 | 47.81252 | -87.92881 | 34885 ft | 480 kts | 114° |
| 2026-05-07 18:00 | 47.78141 | -87.82584 | 34884 ft | 480 kts | 114° |
| 2026-05-07 18:00 | 47.74984 | -87.72175 | 34882 ft | 480 kts | 114° |
| 2026-05-07 18:01 | 47.71756 | -87.61583 | 34885 ft | 480 kts | 114° |
| 2026-05-07 18:01 | 47.68559 | -87.51135 | 34883 ft | 480 kts | 114° |
| 2026-05-07 18:02 | 47.63707 | -87.35360 | 34895 ft | 480 kts | 114° |
| 2026-05-07 18:03 | 47.60412 | -87.24701 | 34897 ft | 480 kts | 115° |
| 2026-05-07 18:03 | 47.57084 | -87.13985 | 34905 ft | 480 kts | 115° |
| 2026-05-07 18:04 | 47.53700 | -87.03138 | 34905 ft | 480 kts | 115° |
| 2026-05-07 18:04 | 47.50272 | -86.92192 | 34906 ft | 480 kts | 115° |
| 2026-05-07 18:05 | 47.46832 | -86.81258 | 34908 ft | 480 kts | 115° |
| 2026-05-07 18:05 | 47.43329 | -86.70171 | 34906 ft | 480 kts | 115° |
| 2026-05-07 18:06 | 47.39852 | -86.59216 | 34911 ft | 481 kts | 115° |
| 2026-05-07 18:06 | 47.36376 | -86.48309 | 34911 ft | 481 kts | 115° |
| 2026-05-07 18:07 | 47.32921 | -86.37517 | 34906 ft | 481 kts | 115° |
| 2026-05-07 18:07 | 47.29410 | -86.26593 | 34896 ft | 481 kts | 116° |
| 2026-05-07 18:08 | 47.25869 | -86.15623 | 34896 ft | 480 kts | 116° |
| 2026-05-07 18:08 | 47.22322 | -86.04684 | 34895 ft | 480 kts | 116° |
| 2026-05-07 18:09 | 47.18798 | -85.93862 | 34907 ft | 480 kts | 116° |
| 2026-05-07 18:09 | 47.15242 | -85.82983 | 34914 ft | 480 kts | 116° |
| 2026-05-07 18:10 | 47.11747 | -85.72337 | 34917 ft | 481 kts | 116° |
| 2026-05-07 18:10 | 47.08418 | -85.62247 | 34910 ft | 481 kts | 116° |
| 2026-05-07 18:11 | 47.04890 | -85.51591 | 34904 ft | 481 kts | 116° |
| 2026-05-07 18:11 | 47.01376 | -85.41015 | 34902 ft | 481 kts | 116° |
| 2026-05-07 18:12 | 46.97825 | -85.30376 | 34901 ft | 480 kts | 117° |
| 2026-05-07 18:12 | 46.94233 | -85.19659 | 34894 ft | 480 kts | 117° |
| 2026-05-07 18:13 | 46.90771 | -85.09364 | 34914 ft | 481 kts | 117° |
| 2026-05-07 18:13 | 46.87235 | -84.98893 | 34918 ft | 481 kts | 117° |
| 2026-05-07 18:14 | 46.83609 | -84.88206 | 34907 ft | 481 kts | 117° |
| 2026-05-07 18:14 | 46.79984 | -84.77564 | 34906 ft | 481 kts | 117° |
| 2026-05-07 18:15 | 46.76411 | -84.67115 | 34888 ft | 481 kts | 117° |
| 2026-05-07 18:15 | 46.72876 | -84.56814 | 34891 ft | 481 kts | 117° |
| 2026-05-07 18:16 | 46.69310 | -84.46467 | 34888 ft | 482 kts | 117° |
| 2026-05-07 18:16 | 46.65751 | -84.36183 | 34910 ft | 482 kts | 117° |
| 2026-05-07 18:17 | 46.62107 | -84.25691 | 34901 ft | 482 kts | 118° |
| 2026-05-07 18:17 | 46.58488 | -84.15312 | 34909 ft | 482 kts | 118° |
| 2026-05-07 18:18 | 46.54854 | -84.04931 | 34879 ft | 482 kts | 118° |
| 2026-05-07 18:18 | 46.51234 | -83.94630 | 34871 ft | 482 kts | 118° |
| 2026-05-07 18:19 | 46.47583 | -83.84286 | 34861 ft | 483 kts | 118° |
| 2026-05-07 18:19 | 46.43817 | -83.73652 | 34866 ft | 483 kts | 118° |
| 2026-05-07 18:20 | 46.39899 | -83.63170 | 34876 ft | 482 kts | 123° |
| 2026-05-07 18:20 | 46.35240 | -83.53365 | 34886 ft | 481 kts | 127° |
| 2026-05-07 18:21 | 46.30457 | -83.43664 | 34888 ft | 482 kts | 127° |
| 2026-05-07 18:21 | 46.25693 | -83.33997 | 34897 ft | 482 kts | 128° |
| 2026-05-07 18:22 | 46.20941 | -83.24375 | 34887 ft | 482 kts | 128° |
| 2026-05-07 18:22 | 46.16178 | -83.14763 | 34891 ft | 482 kts | 128° |
| 2026-05-07 18:23 | 46.11386 | -83.05127 | 34890 ft | 482 kts | 128° |
| 2026-05-07 18:23 | 46.06611 | -82.95559 | 34894 ft | 482 kts | 128° |
| 2026-05-07 18:24 | 46.01830 | -82.86015 | 34897 ft | 483 kts | 128° |
| 2026-05-07 18:24 | 45.97042 | -82.76487 | 34913 ft | 483 kts | 128° |
| 2026-05-07 18:25 | 45.92240 | -82.66962 | 34924 ft | 483 kts | 128° |
| 2026-05-07 18:25 | 45.87585 | -82.57758 | 34929 ft | 483 kts | 128° |
| 2026-05-07 18:26 | 45.82825 | -82.48382 | 34926 ft | 484 kts | 128° |
| 2026-05-07 18:26 | 45.77993 | -82.38894 | 34918 ft | 484 kts | 128° |
| 2026-05-07 18:27 | 45.73184 | -82.29481 | 34916 ft | 484 kts | 129° |
| 2026-05-07 18:27 | 45.68376 | -82.20102 | 34920 ft | 484 kts | 129° |
| 2026-05-07 18:28 | 45.63479 | -82.10635 | 34922 ft | 483 kts | 131° |
| 2026-05-07 18:28 | 45.57951 | -82.01872 | 34922 ft | 480 kts | 140° |
| 2026-05-07 18:29 | 45.52020 | -81.93951 | 34918 ft | 479 kts | 141° |
| 2026-05-07 18:29 | 45.46053 | -81.85999 | 34923 ft | 480 kts | 141° |
| 2026-05-07 18:30 | 45.40131 | -81.78106 | 34926 ft | 480 kts | 141° |
| 2026-05-07 18:30 | 45.34157 | -81.70162 | 34926 ft | 479 kts | 141° |
| 2026-05-07 18:31 | 45.28414 | -81.62553 | 34928 ft | 480 kts | 141° |
| 2026-05-07 18:31 | 45.22566 | -81.54828 | 34930 ft | 480 kts | 141° |
| 2026-05-07 18:32 | 45.16556 | -81.46914 | 34931 ft | 480 kts | 141° |
| 2026-05-07 18:32 | 45.10550 | -81.39027 | 34937 ft | 480 kts | 141° |
| 2026-05-07 18:33 | 45.04645 | -81.31295 | 34941 ft | 480 kts | 142° |
| 2026-05-07 18:33 | 44.98813 | -81.23685 | 34938 ft | 480 kts | 142° |
| 2026-05-07 18:34 | 44.92908 | -81.15997 | 34904 ft | 480 kts | 142° |
| 2026-05-07 18:34 | 44.89940 | -81.12143 | 34400 ft | 483 kts | 142° |
| 2026-05-07 18:34 | 44.87091 | -81.08450 | 33573 ft | 488 kts | 142° |
| 2026-05-07 18:34 | 44.84072 | -81.04545 | 32792 ft | 492 kts | 142° |
| 2026-05-07 18:35 | 44.80996 | -81.00569 | 32111 ft | 494 kts | 142° |
| 2026-05-07 18:35 | 44.77931 | -80.96612 | 31489 ft | 493 kts | 142° |
| 2026-05-07 18:35 | 44.74908 | -80.92708 | 30888 ft | 485 kts | 142° |
| 2026-05-07 18:35 | 44.71899 | -80.88823 | 30095 ft | 474 kts | 142° |
| 2026-05-07 18:36 | 44.68989 | -80.85091 | 28617 ft | 479 kts | 142° |
| 2026-05-07 18:36 | 44.65989 | -80.81248 | 27228 ft | 474 kts | 142° |
| 2026-05-07 18:36 | 44.63077 | -80.77517 | 25624 ft | 472 kts | 141° |
| 2026-05-07 18:36 | 44.60102 | -80.73714 | 23862 ft | 469 kts | 141° |
| 2026-05-07 18:37 | 44.57232 | -80.70041 | 22331 ft | 461 kts | 141° |
| 2026-05-07 18:37 | 44.54368 | -80.66386 | 20302 ft | 463 kts | 141° |
| 2026-05-07 18:37 | 44.51472 | -80.62698 | 18490 ft | 457 kts | 141° |
| 2026-05-07 18:37 | 44.48573 | -80.59011 | 16847 ft | 446 kts | 140° |
| 2026-05-07 18:38 | 44.45822 | -80.55512 | 15285 ft | 435 kts | 140° |
| 2026-05-07 18:38 | 44.43070 | -80.52019 | 13697 ft | 424 kts | 140° |
| 2026-05-07 18:38 | 44.40412 | -80.48647 | 12194 ft | 414 kts | 140° |
| 2026-05-07 18:38 | 44.37826 | -80.45370 | 10961 ft | 403 kts | 140° |
| 2026-05-07 18:39 | 44.35258 | -80.42123 | 10191 ft | 399 kts | 140° |
| 2026-05-07 18:39 | 44.32764 | -80.38975 | 9977 ft | 396 kts | 140° |
| 2026-05-07 18:39 | 44.30258 | -80.35814 | 9977 ft | 396 kts | 140° |
| 2026-05-07 18:39 | 44.27826 | -80.32752 | 9970 ft | 396 kts | 141° |
| 2026-05-07 18:40 | 44.25338 | -80.29621 | 9961 ft | 396 kts | 141° |
| 2026-05-07 18:40 | 44.22876 | -80.26526 | 9961 ft | 396 kts | 141° |
| 2026-05-07 18:40 | 44.20438 | -80.23468 | 9962 ft | 396 kts | 141° |
| 2026-05-07 18:40 | 44.17955 | -80.20354 | 9963 ft | 396 kts | 141° |
| 2026-05-07 18:41 | 44.15505 | -80.17279 | 9945 ft | 393 kts | 141° |
| 2026-05-07 18:41 | 44.13099 | -80.14256 | 9951 ft | 371 kts | 141° |
| 2026-05-07 18:41 | 44.10873 | -80.11462 | 9966 ft | 349 kts | 141° |
| 2026-05-07 18:41 | 44.08730 | -80.08778 | 9945 ft | 327 kts | 141° |
| 2026-05-07 18:42 | 44.06769 | -80.06324 | 9944 ft | 307 kts | 141° |
| 2026-05-07 18:42 | 44.04880 | -80.03963 | 9950 ft | 296 kts | 141° |
| 2026-05-07 18:42 | 44.02988 | -80.01610 | 9960 ft | 295 kts | 142° |
| 2026-05-07 18:42 | 44.01072 | -79.99496 | 9971 ft | 293 kts | 148° |
| 2026-05-07 18:43 | 43.98987 | -79.97590 | 9960 ft | 292 kts | 151° |
| 2026-05-07 18:43 | 43.96879 | -79.95734 | 9967 ft | 291 kts | 151° |
| 2026-05-07 18:43 | 43.94788 | -79.93896 | 9971 ft | 291 kts | 151° |
| 2026-05-07 18:43 | 43.92691 | -79.92048 | 9974 ft | 291 kts | 151° |
| 2026-05-07 18:44 | 43.90727 | -79.90314 | 9667 ft | 287 kts | 151° |
| 2026-05-07 18:44 | 43.88740 | -79.88561 | 8914 ft | 287 kts | 151° |
| 2026-05-07 18:44 | 43.86791 | -79.86842 | 8211 ft | 284 kts | 150° |
| 2026-05-07 18:44 | 43.84811 | -79.85020 | 7972 ft | 286 kts | 146° |
| 2026-05-07 18:45 | 43.83039 | -79.82922 | 7972 ft | 289 kts | 139° |
| 2026-05-07 18:45 | 43.81284 | -79.80605 | 7977 ft | 289 kts | 139° |
| 2026-05-07 18:45 | 43.79581 | -79.78335 | 7647 ft | 279 kts | 139° |
| 2026-05-07 18:45 | 43.77839 | -79.76032 | 6733 ft | 283 kts | 138° |
| 2026-05-07 18:46 | 43.76248 | -79.73662 | 5956 ft | 283 kts | 120° |
| 2026-05-07 18:46 | 43.75794 | -79.70623 | 5205 ft | 279 kts | 78° |
| 2026-05-07 18:46 | 43.76825 | -79.67905 | 4425 ft | 268 kts | 38° |
| 2026-05-07 18:46 | 43.78539 | -79.66121 | 4025 ft | 259 kts | 33° |
| 2026-05-07 18:47 | 43.80114 | -79.64331 | 3980 ft | 249 kts | 38° |
| 2026-05-07 18:47 | 43.81608 | -79.62399 | 3982 ft | 249 kts | 41° |
| 2026-05-07 18:47 | 43.83084 | -79.60326 | 3981 ft | 250 kts | 43° |
| 2026-05-07 18:47 | 43.84508 | -79.58270 | 3980 ft | 250 kts | 43° |
| 2026-05-07 18:48 | 43.85748 | -79.56028 | 3951 ft | 253 kts | 65° |
| 2026-05-07 18:48 | 43.85970 | -79.53226 | 3797 ft | 246 kts | 103° |
| 2026-05-07 18:48 | 43.85123 | -79.50775 | 3491 ft | 241 kts | 125° |
| 2026-05-07 18:48 | 43.83966 | -79.48633 | 3231 ft | 234 kts | 129° |
| 2026-05-07 18:49 | 43.82823 | -79.46645 | 3126 ft | 217 kts | 129° |
| 2026-05-07 18:49 | 43.81715 | -79.44727 | 2988 ft | 209 kts | 132° |
| 2026-05-07 18:49 | 43.80323 | -79.43499 | 2969 ft | 203 kts | 172° |
| 2026-05-07 18:49 | 43.78751 | -79.43900 | 2979 ft | 194 kts | 216° |
| 2026-05-07 18:50 | 43.77605 | -79.45361 | 3001 ft | 189 kts | 232° |
| 2026-05-07 18:50 | 43.76620 | -79.46963 | 2986 ft | 189 kts | 232° |
| 2026-05-07 18:50 | 43.75598 | -79.48540 | 2790 ft | 189 kts | 231° |
| 2026-05-07 18:50 | 43.74543 | -79.50082 | 2478 ft | 188 kts | 230° |
| 2026-05-07 18:51 | 43.73497 | -79.51597 | 2175 ft | 186 kts | 229° |
| 2026-05-07 18:51 | 43.72500 | -79.53042 | 1934 ft | 179 kts | 229° |
| 2026-05-07 18:51 | 43.71599 | -79.54347 | 1637 ft | 162 kts | 230° |
| 2026-05-07 18:51 | 43.70838 | -79.55452 | 1384 ft | 144 kts | 230° |
| 2026-05-07 18:52 | 43.70165 | -79.56430 | 1197 ft | 137 kts | 230° |
| 2026-05-07 18:52 | 43.69489 | -79.57417 | 1036 ft | 140 kts | 230° |
| 2026-05-07 18:52 | 43.68784 | -79.58445 | 868 ft | 142 kts | 229° |
| 2026-05-07 18:52 | 43.68048 | -79.59506 | 640 ft | 149 kts | 228° |
| 2026-05-07 18:53 | 43.67319 | -79.60565 | 552 ft | 123 kts | 229° |
| 2026-05-07 18:53 | 43.66951 | -79.61178 | 549 ft | 35 kts | 241° |
| 2026-05-07 18:53 | 43.66900 | -79.61352 | 549 ft | 15 kts | 252° |
| 2026-05-07 18:53 | 43.66887 | -79.61410 | 549 ft | 3 kts | 254° |
| 2026-05-07 18:54 | 43.66883 | -79.61440 | 550 ft | 2 kts | 259° |
| 2026-05-07 18:54 | 43.66881 | -79.61459 | 550 ft | 2 kts | 267° |
| 2026-05-07 18:54 | 43.66902 | -79.61531 | 551 ft | 13 kts | 306° |
| 2026-05-07 18:54 | 43.67010 | -79.61565 | 554 ft | 17 kts | 28° |
| 2026-05-07 18:55 | 43.67108 | -79.61464 | 555 ft | 16 kts | 38° |
| 2026-05-07 18:55 | 43.67195 | -79.61335 | 557 ft | 19 kts | 54° |
| 2026-05-07 18:55 | 43.67294 | -79.61153 | 559 ft | 20 kts | 50° |
| 2026-05-07 18:55 | 43.67432 | -79.61111 | 561 ft | 18 kts | 340° |
| 2026-05-07 18:56 | 43.67487 | -79.61226 | 563 ft | 6 kts | 287° |
| 2026-05-07 18:56 | 43.67513 | -79.61272 | 564 ft | 5 kts | 347° |
| 2026-05-07 18:56 | 43.67553 | -79.61268 | 564 ft | 5 kts | 7° |
| 2026-05-07 18:56 | 43.67577 | -79.61263 | 565 ft | 0 kts | 7° |
| 2026-05-07 18:57 | 43.67582 | -79.61262 | 565 ft | 0 kts | 7° |